Elon, NC

13:16 EDT le 26 septembre 2016 (GMT -0400)
Brownstone Drive | | Change Station

Alt. 702 ft 36.11 °N, 79.53 °W | Updated 5 minutes ago

Light Rain
Pluie fine
68.7 ° F
Paraît 68.7 ° F
N
0.6
Vent Variable Vent de SE
Gusts 1.2 mph

Aujourd'hui
Haut(e) -- | Bas -- ° F
--% Risque de précip.
Hier
Haut(e) -- | Bas -- ° F
Precip. -- pouce
Pression 30.11 pouce
Visibilité 7.0 Miles terrestres
Nuages Nuageux 1900 ft
Couvert 3000 ft
Point de rosée 67 ° F
Humidité 93%
Précipitations 0.00 pouce
Profondeur de la couche neigeuse Non disponible.
7:09 AM 7:08 PM
Lune descendante, 17% visible
METAR KBUY 261654Z AUTO 13003KT 7SM -RA BKN019 OVC030 19/18 A3012 RMK AO2 SLP195 P0002 T01940183
Pression 30.11 pouce
Visibilité 7.0 Miles terrestres
Nuages Nuageux 1900 ft
Couvert 3000 ft
Point de rosée 67 ° F
Humidité 93%
Précipitations 0.00 pouce
Profondeur de la couche neigeuse Non disponible.
7:09 AM 7:08 PM
Lune descendante, 17% visible
METAR KBUY 261654Z AUTO 13003KT 7SM -RA BKN019 OVC030 19/18 A3012 RMK AO2 SLP195 P0002 T01940183

10-Day Weather Forecast

Almanac

Astronomie

Sep. 26, 2016 Lever Coucher
Temps réel
Crépuscule civil
Crépuscule nautique
Crépuscule astronomique
Lune
Durée de lumière visible
Longueur du jour
Tomorrow will be .
, % of the Moon is Illuminated

Extrêmes aujourd'hui

State Highs State Lows

Community

WunderPhotos

Upload Photos

1,941,930 Photos téléchargées !

WunderBlog® & News

Nearby

Qualité de l'air

  Qualité de l'air Indice de la qualité de l'air Polluant
Not available.

Épaisseur de neige

Station Depth Altitude

Activité sismique

Ville Distance Mag. Time & Date
Minimum magnitude displayed is 2.5.

Températures des eaux côtières

Lieu Température

Stations

Stations météo à proximité

Emplacement de la station Température Refroidissement éolien Point de rosée Humidité Vent Precip. Alt. Mise à jour Type
                   

Watches & Warnings

There are currently no watches in effect.